createdAt,value
2022-08-18T00:02:02.898Z,8.63
2022-08-18T00:04:36.568Z,9.30
2022-08-18T00:07:17.170Z,9.43
2022-08-18T00:09:46.408Z,8.30
2022-08-18T00:12:17.485Z,9.07
2022-08-18T00:14:47.587Z,8.77
2022-08-18T00:17:16.332Z,8.95
2022-08-18T00:19:47.357Z,9.07
2022-08-18T00:22:18.263Z,9.48
2022-08-18T00:24:49.054Z,9.70
2022-08-18T00:27:21.649Z,9.55
2022-08-18T00:29:53.140Z,9.63
2022-08-18T00:32:24.062Z,10.80
2022-08-18T00:34:52.652Z,9.15
2022-08-18T00:37:20.725Z,9.18
2022-08-18T00:39:48.597Z,13.43
2022-08-18T00:42:28.663Z,10.85
2022-08-18T00:45:04.766Z,9.25
2022-08-18T00:47:42.662Z,9.48
2022-08-18T00:50:14.496Z,9.32
2022-08-18T00:52:46.909Z,9.02
2022-08-18T00:55:15.356Z,10.02
2022-08-18T00:57:44.262Z,10.23
2022-08-18T01:00:15.321Z,12.48
2022-08-18T01:02:47.650Z,9.55
2022-08-18T01:05:20.789Z,10.15
2022-08-18T01:07:51.375Z,12.63
2022-08-18T01:10:21.351Z,9.55
2022-08-18T01:12:52.026Z,10.93
2022-08-18T01:15:28.136Z,11.13
2022-08-18T01:18:15.930Z,10.88
2022-08-18T01:21:16.357Z,10.90
2022-08-18T01:23:47.010Z,10.30
2022-08-18T01:26:15.182Z,10.68
2022-08-18T01:28:45.210Z,10.82
2022-08-18T01:31:29.292Z,11.05
2022-08-18T01:33:57.510Z,10.82
2022-08-18T01:36:25.289Z,9.93
2022-08-18T01:38:54.732Z,10.88
2022-08-18T01:41:30.282Z,14.40
2022-08-18T01:43:59.259Z,10.00
2022-08-18T01:46:27.377Z,10.73
2022-08-18T01:48:55.134Z,12.25
2022-08-18T01:51:39.440Z,10.95
2022-08-18T01:54:11.507Z,11.18
2022-08-18T01:56:40.788Z,11.27
2022-08-18T01:59:14.761Z,10.88
2022-08-18T02:01:50.318Z,11.77
2022-08-18T02:04:34.952Z,10.80
2022-08-18T02:07:06.482Z,11.43
2022-08-18T02:09:36.556Z,12.43
2022-08-18T02:12:07.260Z,12.15
2022-08-18T02:14:35.939Z,12.20
2022-08-18T02:17:05.975Z,14.18
2022-08-18T02:19:35.365Z,11.20
2022-08-18T02:22:03.759Z,10.48
2022-08-18T02:24:31.674Z,10.32
2022-08-18T02:27:00.783Z,11.00
2022-08-18T02:29:28.752Z,11.95
2022-08-18T02:31:56.670Z,11.10
2022-08-18T02:34:25.485Z,11.68
2022-08-18T02:36:53.565Z,12.18
2022-08-18T02:39:21.731Z,11.00
2022-08-18T02:41:49.483Z,11.30
2022-08-18T02:44:18.920Z,11.32
2022-08-18T02:46:47.047Z,13.75
2022-08-18T02:49:14.811Z,11.25
2022-08-18T02:51:46.243Z,10.68
2022-08-18T02:54:14.108Z,11.35
2022-08-18T02:56:42.569Z,12.57
2022-08-18T02:59:12.244Z,12.02
2022-08-18T03:01:43.594Z,11.57
2022-08-18T03:04:15.595Z,12.73
2022-08-18T03:06:44.199Z,14.05
2022-08-18T03:09:13.210Z,12.40
2022-08-18T03:11:41.135Z,12.50
2022-08-18T03:14:12.302Z,11.32
2022-08-18T03:16:53.397Z,11.95
2022-08-18T03:19:23.247Z,12.48
2022-08-18T03:21:52.807Z,12.98
2022-08-18T03:24:23.040Z,12.10
2022-08-18T03:26:53.020Z,12.70
2022-08-18T03:29:21.720Z,11.50
2022-08-18T03:31:51.275Z,12.13
2022-08-18T03:34:21.578Z,12.25
2022-08-18T03:36:50.906Z,13.75
2022-08-18T03:39:20.122Z,12.70
2022-08-18T03:41:58.259Z,12.35
2022-08-18T03:44:30.540Z,12.20
2022-08-18T03:47:01.014Z,13.10
2022-08-18T03:49:28.901Z,12.55
2022-08-18T03:52:00.090Z,12.70
2022-08-18T03:54:28.260Z,13.65
2022-08-18T03:56:56.287Z,13.18
2022-08-18T03:59:27.263Z,12.85
2022-08-18T04:01:56.228Z,13.02
2022-08-18T04:04:28.441Z,13.32
2022-08-18T04:06:59.057Z,12.15
2022-08-18T04:09:28.885Z,14.68
2022-08-18T04:11:58.101Z,12.70
2022-08-18T04:14:29.877Z,14.00
2022-08-18T04:16:58.522Z,11.80
2022-08-18T04:19:28.300Z,17.45
2022-08-18T04:21:57.838Z,14.15
2022-08-18T04:24:28.109Z,14.10
2022-08-18T04:26:58.286Z,14.70
2022-08-18T04:29:26.248Z,12.35
2022-08-18T04:31:54.098Z,13.90
2022-08-18T04:34:23.321Z,14.60
2022-08-18T04:36:54.454Z,13.05
2022-08-18T04:39:23.732Z,13.52
2022-08-18T04:41:51.821Z,18.42
2022-08-18T04:44:20.030Z,15.55
2022-08-18T04:46:51.759Z,15.70
2022-08-18T04:49:21.558Z,15.05
2022-08-18T04:52:37.753Z,14.70
2022-08-18T04:54:54.142Z,17.95
2022-08-18T04:57:22.964Z,16.77
2022-08-18T04:59:53.502Z,13.73
2022-08-18T05:02:22.967Z,15.68
2022-08-18T05:04:52.351Z,20.55
2022-08-18T05:07:23.668Z,18.30
2022-08-18T05:09:55.040Z,20.20
2022-08-18T05:12:26.141Z,13.00
2022-08-18T05:14:56.982Z,14.95
2022-08-18T05:17:30.052Z,14.40
2022-08-18T05:19:58.907Z,14.30
2022-08-18T05:22:30.593Z,15.27
2022-08-18T05:24:59.170Z,16.08
2022-08-18T05:27:31.492Z,13.07
2022-08-18T05:29:59.237Z,13.27
2022-08-18T05:32:48.198Z,12.20
2022-08-18T05:35:26.124Z,16.02
2022-08-18T05:38:20.861Z,12.68
2022-08-18T05:41:04.991Z,13.43
2022-08-18T05:43:32.905Z,13.05
2022-08-18T05:46:03.369Z,14.77
2022-08-18T05:48:31.094Z,12.60
2022-08-18T05:51:02.756Z,13.15
2022-08-18T05:53:46.153Z,14.65
2022-08-18T05:56:28.505Z,15.00
2022-08-18T05:58:57.517Z,16.27
2022-08-18T06:01:29.830Z,13.52
2022-08-18T06:04:06.767Z,13.65
2022-08-18T06:06:36.974Z,12.85
2022-08-18T06:09:13.054Z,14.60
2022-08-18T06:11:40.886Z,14.95
2022-08-18T06:14:08.729Z,14.05
2022-08-18T06:16:50.192Z,13.40
2022-08-18T06:19:29.428Z,13.80
2022-08-18T06:22:03.624Z,13.48
2022-08-18T06:24:39.162Z,14.57
2022-08-18T06:27:13.968Z,13.90
2022-08-18T06:29:54.491Z,19.58
2022-08-18T06:32:34.210Z,14.07
2022-08-18T06:35:12.360Z,15.13
2022-08-18T06:38:03.163Z,16.65
2022-08-18T06:40:32.280Z,15.05
2022-08-18T06:43:02.115Z,12.75
2022-08-18T06:45:39.959Z,14.57
2022-08-18T06:48:15.550Z,13.88
2022-08-18T06:50:51.162Z,13.82
2022-08-18T06:53:27.883Z,13.90
2022-08-18T06:55:57.445Z,13.93
2022-08-18T06:58:30.056Z,14.90
2022-08-18T07:01:02.509Z,13.00
2022-08-18T07:03:45.230Z,13.13
2022-08-18T07:06:27.574Z,13.63
2022-08-18T07:08:57.402Z,16.00
2022-08-18T07:11:31.067Z,13.65
2022-08-18T07:14:16.431Z,15.55
2022-08-18T07:16:58.186Z,14.05
2022-08-18T07:19:30.593Z,14.07
2022-08-18T07:22:03.823Z,14.45
2022-08-18T07:24:37.461Z,13.48
2022-08-18T07:27:09.249Z,14.77
2022-08-18T07:29:39.929Z,12.82
2022-08-18T07:32:20.847Z,15.18
2022-08-18T07:34:55.124Z,15.80
2022-08-18T07:37:28.992Z,16.63
2022-08-18T07:40:02.330Z,20.15
2022-08-18T07:43:00.763Z,16.65
2022-08-18T07:45:34.257Z,14.55
2022-08-18T07:48:34.856Z,13.77
2022-08-18T07:51:08.578Z,13.48
2022-08-18T07:53:54.767Z,12.23
2022-08-18T07:56:37.861Z,19.00
2022-08-18T07:59:17.254Z,15.18
2022-08-18T08:01:54.168Z,17.90
2022-08-18T08:04:31.448Z,17.05
2022-08-18T08:07:23.821Z,14.55
2022-08-18T08:10:00.969Z,16.70
2022-08-18T08:12:45.306Z,16.98
2022-08-18T08:15:26.514Z,17.70
2022-08-18T08:18:02.030Z,13.95
2022-08-18T08:20:38.110Z,15.35
2022-08-18T08:23:17.831Z,12.85
2022-08-18T08:26:01.858Z,11.35
2022-08-18T08:28:43.701Z,13.27
2022-08-18T08:31:36.272Z,12.65
2022-08-18T08:34:11.888Z,14.13
2022-08-18T08:36:41.981Z,14.38
2022-08-18T08:39:17.319Z,20.52
2022-08-18T08:41:51.196Z,12.63
2022-08-18T08:44:23.299Z,12.95
2022-08-18T08:46:57.444Z,10.65
2022-08-18T08:49:35.728Z,9.80
2022-08-18T08:52:10.890Z,10.63
2022-08-18T08:54:45.070Z,8.90
2022-08-18T08:57:15.269Z,9.88
2022-08-18T08:59:46.655Z,9.50
2022-08-18T09:02:50.858Z,9.82
2022-08-18T09:05:22.615Z,8.88
2022-08-18T09:08:23.224Z,16.60
2022-08-18T09:11:11.723Z,10.13
2022-08-18T09:14:00.593Z,7.60
2022-08-18T09:16:42.384Z,7.32
2022-08-18T09:19:40.927Z,10.23
2022-08-18T09:22:18.793Z,8.45
2022-08-18T09:24:51.108Z,8.43
2022-08-18T09:27:48.525Z,9.15
2022-08-18T09:30:47.522Z,10.35
2022-08-18T09:33:22.943Z,7.50
2022-08-18T09:36:18.459Z,7.90
2022-08-18T09:39:10.486Z,9.82
2022-08-18T09:41:46.105Z,6.40
2022-08-18T09:44:55.456Z,6.78
2022-08-18T09:47:58.654Z,12.90
2022-08-18T09:50:54.285Z,6.65
2022-08-18T09:54:08.479Z,7.57
2022-08-18T09:57:16.506Z,6.97
2022-08-18T10:00:24.415Z,9.63
2022-08-18T10:03:14.180Z,9.95
2022-08-18T10:05:59.436Z,5.70
2022-08-18T10:09:17.912Z,7.63
2022-08-18T10:12:29.635Z,8.88
2022-08-18T10:15:33.173Z,6.75
2022-08-18T10:18:22.593Z,7.93
2022-08-18T10:21:01.866Z,5.97
2022-08-18T10:23:58.448Z,5.80
2022-08-18T10:27:08.407Z,9.35
2022-08-18T10:30:06.217Z,6.60
2022-08-18T10:32:54.138Z,7.72
2022-08-18T10:36:07.557Z,8.32
2022-08-18T10:38:46.129Z,8.50
2022-08-18T10:41:31.013Z,8.07
2022-08-18T10:44:01.289Z,5.45
2022-08-18T10:46:42.338Z,6.55
2022-08-18T10:49:23.123Z,6.88
2022-08-18T10:52:14.814Z,8.07
2022-08-18T10:55:01.431Z,5.43
2022-08-18T10:57:40.195Z,5.43
2022-08-18T11:00:13.507Z,7.43
2022-08-18T11:03:02.429Z,6.30
2022-08-18T11:05:43.114Z,6.15
2022-08-18T11:08:18.569Z,6.95
2022-08-18T11:11:27.519Z,7.03
2022-08-18T11:13:49.254Z,5.75
2022-08-18T11:16:28.565Z,7.63
2022-08-18T11:19:05.181Z,6.20
2022-08-18T11:24:29.090Z,5.05
2022-08-18T11:26:58.959Z,5.53
2022-08-18T11:29:32.197Z,5.43
2022-08-18T11:32:06.262Z,5.65
2022-08-18T11:34:52.015Z,8.35
2022-08-18T11:37:26.984Z,7.55
2022-08-18T11:39:58.774Z,7.80
2022-08-18T11:42:33.213Z,8.57
2022-08-18T11:45:14.184Z,6.60
2022-08-18T11:48:01.412Z,5.72
2022-08-18T11:50:34.457Z,5.43
2022-08-18T11:53:18.881Z,9.45
2022-08-18T11:56:15.188Z,7.20
2022-08-18T11:58:50.435Z,5.95
2022-08-18T12:01:42.150Z,6.25
2022-08-18T12:04:16.655Z,6.72
2022-08-18T12:07:06.297Z,5.00
2022-08-18T12:10:16.501Z,6.43
2022-08-18T12:12:30.496Z,6.47
2022-08-18T12:15:09.063Z,5.53
2022-08-18T12:17:43.403Z,5.28
2022-08-18T12:20:21.191Z,6.63
2022-08-18T12:22:50.674Z,4.55
2022-08-18T12:25:24.818Z,6.07
2022-08-18T12:27:53.920Z,6.63
2022-08-18T12:30:21.971Z,6.43
2022-08-18T12:33:05.573Z,5.32
2022-08-18T12:35:38.434Z,6.10
2022-08-18T12:40:55.308Z,5.68
2022-08-18T12:43:23.071Z,6.38
2022-08-18T12:45:50.898Z,6.00
2022-08-18T12:51:07.388Z,5.70
2022-08-18T12:53:58.566Z,5.25
2022-08-18T12:56:31.015Z,6.28
2022-08-18T12:59:01.180Z,5.60
2022-08-18T13:01:32.901Z,5.25
2022-08-18T13:04:11.321Z,6.20
2022-08-18T13:06:58.875Z,7.78
2022-08-18T13:09:48.083Z,5.93
2022-08-18T13:12:19.601Z,6.22
2022-08-18T13:14:49.783Z,5.35
2022-08-18T13:17:32.803Z,6.93
2022-08-18T13:20:02.920Z,6.50
2022-08-18T13:22:32.859Z,6.18
2022-08-18T13:25:03.853Z,8.15
2022-08-18T13:27:35.286Z,5.47
2022-08-18T13:30:16.600Z,7.40
2022-08-18T13:33:00.365Z,5.53
2022-08-18T13:35:38.370Z,8.90
2022-08-18T13:38:20.727Z,5.68
2022-08-18T13:40:51.804Z,5.47
2022-08-18T13:43:23.457Z,6.68
2022-08-18T13:45:53.483Z,5.50
2022-08-18T13:48:24.351Z,5.30
2022-08-18T13:50:53.815Z,5.10
2022-08-18T13:53:24.671Z,7.70
2022-08-18T13:55:57.519Z,5.75
2022-08-18T13:58:27.063Z,8.77
2022-08-18T14:01:16.221Z,5.68
2022-08-18T14:03:47.930Z,6.03
2022-08-18T14:06:22.015Z,6.93
2022-08-18T14:08:51.746Z,7.72
2022-08-18T14:11:23.502Z,5.72
2022-08-18T14:13:53.858Z,6.45
2022-08-18T14:16:22.930Z,5.40
2022-08-18T14:19:12.197Z,6.45
2022-08-18T14:22:01.573Z,5.95
2022-08-18T14:24:48.984Z,7.53
2022-08-18T14:27:18.577Z,5.80
2022-08-18T14:29:49.785Z,6.40
2022-08-18T14:32:29.215Z,8.90
2022-08-18T14:35:00.797Z,6.40
2022-08-18T14:37:41.177Z,5.80
2022-08-18T14:40:12.467Z,9.30
2022-08-18T14:42:54.374Z,5.38
2022-08-18T14:45:31.587Z,6.75
2022-08-18T14:48:06.705Z,4.75
2022-08-18T14:50:40.093Z,9.90
2022-08-18T14:53:13.595Z,5.43
2022-08-18T14:55:43.180Z,7.55
2022-08-18T14:58:12.451Z,5.57
2022-08-18T15:00:49.714Z,6.40
2022-08-18T15:03:22.092Z,7.45
2022-08-18T15:06:00.109Z,8.82
2022-08-18T15:08:28.336Z,6.85
2022-08-18T15:10:57.343Z,6.60
2022-08-18T15:13:26.718Z,7.07
2022-08-18T15:15:55.849Z,8.45
2022-08-18T15:18:31.302Z,8.15
2022-08-18T15:21:19.512Z,10.07
2022-08-18T15:24:20.693Z,10.48
2022-08-18T15:26:51.487Z,7.55
2022-08-18T15:29:22.634Z,10.43
2022-08-18T15:31:59.859Z,11.73
2022-08-18T15:34:32.810Z,7.97
2022-08-18T15:37:14.387Z,8.25
2022-08-18T15:39:42.593Z,8.82
2022-08-18T15:42:13.521Z,9.10
2022-08-18T15:44:44.694Z,8.75
2022-08-18T15:47:12.620Z,8.10
2022-08-18T15:49:40.545Z,9.00
2022-08-18T15:52:11.928Z,12.02
2022-08-18T15:54:42.287Z,7.93
2022-08-18T15:57:23.593Z,8.52
2022-08-18T16:00:03.694Z,8.32
2022-08-18T16:02:31.776Z,7.00
2022-08-18T16:05:10.249Z,7.10
2022-08-18T16:07:45.200Z,7.95
2022-08-18T16:10:13.216Z,6.50
2022-08-18T16:12:46.297Z,8.00
2022-08-18T16:15:19.587Z,7.55
2022-08-18T16:17:51.696Z,7.20
2022-08-18T16:20:19.975Z,8.65
2022-08-18T16:22:48.586Z,10.30
2022-08-18T16:25:17.162Z,9.32
2022-08-18T16:27:45.525Z,9.63
2022-08-18T16:30:17.391Z,10.07
2022-08-18T16:32:45.580Z,7.05
2022-08-18T16:35:13.345Z,7.35
2022-08-18T16:37:41.433Z,9.20
2022-08-18T16:40:10.291Z,6.80
2022-08-18T16:42:38.241Z,7.38
2022-08-18T16:45:07.129Z,8.27
2022-08-18T16:47:39.044Z,10.02
2022-08-18T16:50:09.082Z,9.93
2022-08-18T16:52:37.289Z,13.15
2022-08-18T16:55:06.300Z,7.45
2022-08-18T16:57:54.019Z,8.07
2022-08-18T17:00:41.528Z,7.95
2022-08-18T17:03:28.685Z,7.68
2022-08-18T17:06:03.667Z,7.93
2022-08-18T17:08:34.173Z,8.63
2022-08-18T17:11:02.191Z,7.93
2022-08-18T17:13:31.401Z,12.40
2022-08-18T17:15:59.200Z,9.38
2022-08-18T17:18:29.546Z,12.00
2022-08-18T17:20:57.360Z,7.60
2022-08-18T17:23:27.436Z,7.47
2022-08-18T17:25:56.484Z,8.50
2022-08-18T17:28:30.627Z,7.93
2022-08-18T17:30:59.975Z,9.48
2022-08-18T17:33:32.499Z,6.88
2022-08-18T17:36:05.521Z,7.53
2022-08-18T17:38:40.725Z,6.90
2022-08-18T17:41:08.551Z,6.78
2022-08-18T17:46:23.648Z,7.28
2022-08-18T17:48:57.086Z,6.43
2022-08-18T17:51:35.258Z,9.85
2022-08-18T17:54:10.014Z,6.57
2022-08-18T17:56:43.576Z,9.15
2022-08-18T17:59:45.671Z,9.25
2022-08-18T18:02:28.498Z,7.32
2022-08-18T18:05:00.860Z,8.77
2022-08-18T18:07:32.780Z,8.50
2022-08-18T18:10:04.338Z,7.90
2022-08-18T18:12:34.619Z,10.25
2022-08-18T18:15:05.197Z,7.15
2022-08-18T18:17:37.916Z,8.80
2022-08-18T18:20:17.090Z,9.82
2022-08-18T18:22:45.782Z,7.60
2022-08-18T18:25:30.130Z,8.65
2022-08-18T18:28:02.805Z,8.70
2022-08-18T18:30:31.793Z,9.63
2022-08-18T18:33:03.017Z,8.32
2022-08-18T18:35:54.060Z,8.25
2022-08-18T18:38:28.029Z,8.43
2022-08-18T18:40:59.001Z,8.93
2022-08-18T18:43:29.777Z,7.88
2022-08-18T18:46:23.748Z,11.27
2022-08-18T18:49:09.684Z,8.68
2022-08-18T18:51:43.627Z,9.50
2022-08-18T18:54:27.130Z,8.52
2022-08-18T18:56:57.317Z,8.30
2022-08-18T18:59:35.785Z,9.27
2022-08-18T19:02:33.780Z,9.35
2022-08-18T19:05:17.719Z,9.68
2022-08-18T19:07:58.053Z,12.07
2022-08-18T19:10:34.730Z,9.25
2022-08-18T19:13:07.034Z,9.07
2022-08-18T19:15:38.441Z,8.70
2022-08-18T19:18:25.896Z,10.18
2022-08-18T19:22:05.034Z,11.45
2022-08-18T19:23:57.694Z,9.27
2022-08-18T19:26:29.469Z,9.57
2022-08-18T19:29:13.589Z,10.93
2022-08-18T19:31:46.975Z,9.55
2022-08-18T19:34:22.732Z,9.82
2022-08-18T19:37:00.775Z,10.95
2022-08-18T19:39:39.351Z,10.60
2022-08-18T19:42:12.468Z,12.80
2022-08-18T19:45:00.301Z,11.25
2022-08-18T19:47:40.784Z,11.15
2022-08-18T19:50:16.229Z,10.38
2022-08-18T19:53:01.073Z,11.02
2022-08-18T19:55:48.680Z,10.63
2022-08-18T19:58:53.347Z,10.48
2022-08-18T20:01:39.468Z,11.35
2022-08-18T20:04:19.746Z,9.90
2022-08-18T20:07:11.480Z,10.88
2022-08-18T20:10:09.472Z,12.32
2022-08-18T20:12:56.777Z,10.98
2022-08-18T20:15:28.447Z,13.10
2022-08-18T20:18:20.315Z,14.18
2022-08-18T20:21:39.898Z,9.93
2022-08-18T20:24:34.788Z,11.93
2022-08-18T20:27:22.484Z,10.10
2022-08-18T20:30:21.565Z,9.98
2022-08-18T20:33:11.123Z,11.15
2022-08-18T20:35:45.799Z,12.77
2022-08-18T20:38:29.770Z,10.35
2022-08-18T20:40:59.659Z,11.23
2022-08-18T20:43:30.833Z,10.93
2022-08-18T20:46:12.616Z,11.32
2022-08-18T20:49:07.072Z,11.65
2022-08-18T20:51:42.795Z,14.02
2022-08-18T20:54:32.863Z,11.52
2022-08-18T20:57:03.641Z,10.80
2022-08-18T20:59:34.578Z,11.45
2022-08-18T21:02:09.563Z,10.93
2022-08-18T21:04:46.379Z,10.95
2022-08-18T21:07:36.355Z,22.88
2022-08-18T21:10:13.446Z,13.75
2022-08-18T21:12:51.826Z,11.18
2022-08-18T21:15:23.095Z,11.20
2022-08-18T21:18:00.071Z,11.05
2022-08-18T21:20:29.044Z,10.88
2022-08-18T21:23:04.605Z,10.82
2022-08-18T21:25:33.599Z,10.60
2022-08-18T21:28:03.987Z,11.38
2022-08-18T21:30:32.739Z,11.18
2022-08-18T21:33:02.092Z,10.50
2022-08-18T21:35:32.065Z,11.13
2022-08-18T21:38:02.825Z,11.25
2022-08-18T21:40:43.443Z,11.80
2022-08-18T21:43:14.198Z,10.23
2022-08-18T21:45:47.621Z,11.27
2022-08-18T21:48:16.981Z,11.05
2022-08-18T21:50:51.609Z,10.45
2022-08-18T21:53:23.176Z,10.45
2022-08-18T21:55:52.322Z,10.43
2022-08-18T21:58:33.640Z,11.48
2022-08-18T22:01:21.604Z,10.63
2022-08-18T22:03:54.270Z,11.15
2022-08-18T22:06:29.118Z,11.65
2022-08-18T22:08:59.972Z,12.00
2022-08-18T22:12:00.754Z,10.35
2022-08-18T22:14:35.999Z,9.75
2022-08-18T22:17:28.440Z,11.10
2022-08-18T22:20:35.987Z,10.38
2022-08-18T22:23:24.856Z,11.20
2022-08-18T22:25:52.683Z,11.68
2022-08-18T22:28:24.423Z,11.70
2022-08-18T22:30:55.115Z,11.32
2022-08-18T22:33:23.141Z,11.15
2022-08-18T22:35:57.162Z,11.40
2022-08-18T22:38:30.139Z,11.20
2022-08-18T22:41:00.117Z,10.02
2022-08-18T22:43:28.449Z,10.38
2022-08-18T22:45:56.165Z,12.52
2022-08-18T22:48:23.903Z,10.80
2022-08-18T22:50:51.913Z,10.90
2022-08-18T22:53:21.020Z,10.60
2022-08-18T22:55:49.277Z,10.77
2022-08-18T22:58:22.141Z,11.07
2022-08-18T23:01:05.544Z,12.73
2022-08-18T23:03:35.083Z,11.65
2022-08-18T23:06:11.441Z,11.75
2022-08-18T23:08:54.572Z,12.98
2022-08-18T23:11:25.318Z,12.23
2022-08-18T23:13:53.962Z,12.70
2022-08-18T23:16:31.150Z,12.43
2022-08-18T23:19:01.839Z,12.98
2022-08-18T23:21:34.234Z,12.65
2022-08-18T23:24:05.800Z,14.38
2022-08-18T23:26:34.185Z,15.52
2022-08-18T23:29:03.317Z,12.65
2022-08-18T23:31:31.441Z,12.90
2022-08-18T23:34:00.588Z,12.82
2022-08-18T23:36:28.703Z,13.10
2022-08-18T23:38:56.508Z,12.48
2022-08-18T23:41:25.965Z,13.70
2022-08-18T23:43:53.849Z,13.43
2022-08-18T23:46:24.349Z,13.80
2022-08-18T23:48:53.353Z,14.57
2022-08-18T23:51:30.418Z,17.20
2022-08-18T23:54:00.669Z,15.52
2022-08-18T23:56:32.139Z,17.20
2022-08-18T23:59:00.715Z,16.38
